Time;durP1;ratioP1;P1;durP2;ratioP2;P2;SDS_P1;SDS_P2;PMS_P1;PMS_P2;Temp;Humidity;BMP_temperature;BMP_pressure;BME280_temperature;BME280_humidity;BME280_pressure;Samples;Min_cycle;Max_cycle;Signal;HPM_P1;HPM_P2
2024/01/07 00:00:04;;;;;;;6.68;3.63;;;5.10;99.90;;;;;;4860677;29;20603;-67
2024/01/07 00:02:31;;;;;;;7.65;3.63;;;5.10;99.90;;;;;;4859794;29;20073;-66
2024/01/07 00:04:57;;;;;;;9.55;3.95;;;5.10;99.90;;;;;;4860745;29;20029;-67
2024/01/07 00:07:23;;;;;;;6.25;3.72;;;5.10;99.90;;;;;;4860608;29;20040;-67
2024/01/07 00:09:49;;;;;;;9.35;4.65;;;5.10;99.90;;;;;;4862460;29;20390;-66
2024/01/07 00:12:15;;;;;;;8.13;4.72;;;5.10;99.90;;;;;;4861264;29;20034;-66
2024/01/07 00:14:41;;;;;;;4.15;2.53;;;5.10;99.90;;;;;;4860634;29;20041;-67
2024/01/07 00:17:07;;;;;;;8.02;3.65;;;5.00;99.90;;;;;;4873910;29;20497;-67
2024/01/07 00:19:35;;;;;;;11.70;5.40;;;5.00;99.90;;;;;;4861895;29;20029;-67
2024/01/07 00:22:01;;;;;;;7.60;2.75;;;5.00;99.90;;;;;;4859640;29;20450;-67
2024/01/07 00:24:28;;;;;;;9.27;4.22;;;5.10;99.90;;;;;;4860665;29;20120;-66
2024/01/07 00:26:55;;;;;;;9.13;3.88;;;5.00;99.90;;;;;;4860373;29;20037;-67
2024/01/07 00:29:21;;;;;;;6.88;3.55;;;5.00;99.90;;;;;;4875596;29;20082;-67
2024/01/07 00:31:47;;;;;;;8.40;3.90;;;5.00;99.90;;;;;;4860726;29;20026;-67
2024/01/07 00:34:13;;;;;;;7.95;3.13;;;5.00;99.90;;;;;;4874544;29;20033;-67
2024/01/07 00:36:38;;;;;;;6.80;4.13;;;5.10;99.90;;;;;;4875343;29;20032;-67
2024/01/07 00:39:06;;;;;;;6.70;4.10;;;5.10;99.90;;;;;;4858047;29;20033;-67
2024/01/07 00:41:31;;;;;;;6.07;2.90;;;5.10;99.90;;;;;;4860476;29;20021;-67
2024/01/07 00:43:57;;;;;;;10.27;3.83;;;5.00;99.90;;;;;;4859645;29;20049;-67
2024/01/07 00:46:25;;;;;;;5.70;3.58;;;5.10;99.90;;;;;;4861447;29;20459;-67
2024/01/07 00:48:51;;;;;;;6.13;3.10;;;5.00;99.90;;;;;;4859959;29;20041;-67
2024/01/07 00:51:17;;;;;;;10.30;3.55;;;5.00;99.90;;;;;;4844683;29;20490;-66
2024/01/07 00:53:45;;;;;;;6.85;3.17;;;5.00;99.90;;;;;;4857921;29;20121;-66
2024/01/07 00:56:14;;;;;;;7.32;3.50;;;5.00;99.90;;;;;;4859663;29;20487;-66
2024/01/07 00:58:39;;;;;;;12.07;4.43;;;5.10;99.90;;;;;;4861054;29;20021;-66
2024/01/07 01:01:06;;;;;;;5.20;3.28;;;5.00;99.90;;;;;;4844366;29;20033;-67
2024/01/07 01:03:32;;;;;;;5.70;2.88;;;5.00;99.90;;;;;;4860237;29;20340;-67
2024/01/07 01:05:58;;;;;;;10.52;3.72;;;5.00;99.90;;;;;;4859668;29;20094;-67
2024/01/07 01:08:24;;;;;;;4.72;1.95;;;5.00;99.90;;;;;;4858042;29;20097;-67
2024/01/07 01:10:49;;;;;;;6.22;3.58;;;5.00;99.90;;;;;;4860552;29;20025;-67
2024/01/07 01:13:15;;;;;;;3.38;1.75;;;4.90;99.90;;;;;;4857209;29;20036;-67
2024/01/07 01:15:41;;;;;;;7.60;2.75;;;4.90;99.90;;;;;;4860604;29;20029;-67
2024/01/07 01:18:06;;;;;;;8.05;3.30;;;4.90;99.90;;;;;;4857388;29;20041;-66
2024/01/07 01:20:32;;;;;;;6.78;3.33;;;4.90;99.90;;;;;;4860500;29;20041;-67
2024/01/07 01:22:58;;;;;;;4.25;2.20;;;4.90;99.90;;;;;;4858767;29;20029;-67
2024/01/07 01:25:24;;;;;;;5.50;2.38;;;4.90;99.90;;;;;;4859258;29;20041;-67
2024/01/07 01:27:49;;;;;;;7.15;2.58;;;4.90;99.90;;;;;;4858735;29;20068;-67
2024/01/07 01:30:15;;;;;;;3.38;1.80;;;4.80;99.90;;;;;;4860537;29;20423;-67
2024/01/07 01:32:41;;;;;;;3.08;1.67;;;4.90;99.90;;;;;;4859642;29;20048;-67
2024/01/07 01:35:09;;;;;;;4.05;2.60;;;4.90;99.90;;;;;;4859060;29;20053;-67
2024/01/07 01:37:35;;;;;;;9.75;2.90;;;4.90;99.90;;;;;;4860115;29;20696;-67
2024/01/07 01:40:01;;;;;;;4.22;1.90;;;4.80;99.90;;;;;;4859947;29;20017;-67
2024/01/07 01:42:27;;;;;;;3.85;1.92;;;4.90;99.90;;;;;;4870379;29;20029;-67
2024/01/07 01:44:56;;;;;;;5.55;2.92;;;4.80;99.90;;;;;;4859138;29;20105;-68
2024/01/07 01:47:23;;;;;;;5.10;2.15;;;4.90;99.90;;;;;;4858375;29;20142;-68
2024/01/07 01:49:49;;;;;;;5.03;2.25;;;4.90;99.90;;;;;;4858761;29;20442;-68
2024/01/07 01:52:15;;;;;;;6.57;2.45;;;4.90;99.90;;;;;;4853802;29;20116;-68
2024/01/07 01:54:41;;;;;;;4.63;1.67;;;4.90;99.90;;;;;;4859567;29;20169;-68
2024/01/07 01:57:13;;;;;;;4.35;1.73;;;4.90;99.90;;;;;;4858504;29;20026;-68
2024/01/07 01:59:39;;;;;;;2.30;1.55;;;4.90;99.90;;;;;;4858683;29;20030;-68
2024/01/07 02:02:05;;;;;;;6.25;2.85;;;4.90;99.90;;;;;;4855473;29;20494;-68
2024/01/07 02:04:31;;;;;;;2.47;1.67;;;4.90;99.90;;;;;;4856302;29;20033;-68
2024/01/07 02:06:57;;;;;;;4.80;1.48;;;4.90;99.90;;;;;;4861481;29;20468;-68
2024/01/07 02:09:22;;;;;;;1.77;1.02;;;4.90;99.90;;;;;;4859622;29;20108;-68
2024/01/07 02:12:04;;;;;;;3.45;2.20;;;4.90;99.90;;;;;;4867643;29;20041;-67
2024/01/07 02:14:30;;;;;;;2.53;1.60;;;4.80;99.90;;;;;;4873085;29;20064;-68
2024/01/07 02:16:56;;;;;;;1.48;1.17;;;4.80;99.90;;;;;;4852430;29;20049;-67
2024/01/07 02:19:22;;;;;;;3.10;1.58;;;4.90;99.90;;;;;;4859937;29;20033;-67
2024/01/07 02:21:50;;;;;;;2.15;1.42;;;4.80;99.90;;;;;;4859024;29;20086;-67
2024/01/07 02:24:19;;;;;;;2.83;1.50;;;4.80;99.90;;;;;;4873896;29;20037;-68
2024/01/07 02:26:45;;;;;;;6.00;1.42;;;4.80;99.90;;;;;;4854408;29;20036;-67
2024/01/07 02:29:11;;;;;;;2.92;1.33;;;4.80;99.90;;;;;;4873518;29;20483;-67
2024/01/07 02:31:36;;;;;;;3.90;1.98;;;4.80;99.90;;;;;;4873266;29;20041;-67
2024/01/07 02:34:02;;;;;;;2.60;1.65;;;4.80;99.90;;;;;;4873767;29;20044;-67
2024/01/07 02:36:28;;;;;;;3.72;1.55;;;4.80;99.90;;;;;;4869936;29;20105;-67
2024/01/07 02:38:54;;;;;;;3.00;1.23;;;4.80;99.90;;;;;;4858783;29;20718;-68
2024/01/07 02:41:20;;;;;;;2.72;1.73;;;4.80;99.90;;;;;;4855491;29;20029;-67
2024/01/07 02:43:46;;;;;;;3.50;2.42;;;4.90;99.90;;;;;;4873523;29;20044;-67
2024/01/07 02:46:17;;;;;;;3.85;2.15;;;4.80;99.90;;;;;;4869255;29;20034;-68
2024/01/07 02:48:43;;;;;;;2.08;1.63;;;4.80;99.90;;;;;;4858172;29;20032;-68
2024/01/07 02:51:09;;;;;;;4.93;2.60;;;4.80;99.90;;;;;;4853713;29;20034;-67
2024/01/07 02:53:34;;;;;;;1.98;1.65;;;4.80;99.90;;;;;;4870599;29;20029;-67
2024/01/07 02:56:00;;;;;;;11.13;2.22;;;4.80;99.90;;;;;;4869275;29;20030;-67
2024/01/07 02:58:26;;;;;;;2.70;1.98;;;4.80;99.90;;;;;;4873399;29;20026;-67
2024/01/07 03:00:52;;;;;;;3.20;2.00;;;4.70;99.90;;;;;;4856023;29;20057;-66
2024/01/07 03:03:18;;;;;;;4.28;2.40;;;4.70;99.90;;;;;;4872813;29;20120;-67
2024/01/07 03:05:43;;;;;;;2.13;1.20;;;4.80;99.90;;;;;;4858528;29;20037;-67
2024/01/07 03:08:09;;;;;;;2.67;1.50;;;4.70;99.90;;;;;;4861450;29;20118;-67
2024/01/07 03:10:35;;;;;;;5.68;2.45;;;4.70;99.90;;;;;;4861859;29;20036;-68
2024/01/07 03:13:02;;;;;;;5.13;2.45;;;4.70;99.90;;;;;;4860109;29;20525;-67
2024/01/07 03:15:29;;;;;;;6.88;2.22;;;4.70;99.90;;;;;;4861073;29;20109;-66
2024/01/07 03:17:56;;;;;;;3.40;2.00;;;4.70;99.90;;;;;;4876961;29;20034;-67
2024/01/07 03:20:21;;;;;;;3.90;2.05;;;4.70;99.90;;;;;;4862057;29;20471;-66
2024/01/07 03:22:50;;;;;;;2.45;1.10;;;4.70;99.90;;;;;;4862673;29;20044;-68
2024/01/07 03:25:16;;;;;;;3.75;1.67;;;4.70;99.90;;;;;;4877014;29;20055;-67
2024/01/07 03:27:42;;;;;;;5.32;3.00;;;4.80;99.90;;;;;;4862400;29;20470;-68
2024/01/07 03:30:09;;;;;;;2.47;1.38;;;4.70;99.90;;;;;;4862494;29;20048;-68
2024/01/07 03:32:34;;;;;;;5.90;2.72;;;4.70;99.90;;;;;;4876239;29;20040;-68
2024/01/07 03:35:03;;;;;;;4.18;2.00;;;4.70;99.90;;;;;;4862372;29;20037;-67
2024/01/07 03:37:29;;;;;;;4.45;2.53;;;4.70;99.90;;;;;;4876297;29;20048;-67
2024/01/07 03:39:55;;;;;;;4.85;2.17;;;4.70;99.90;;;;;;4876944;29;20478;-66
2024/01/07 03:42:23;;;;;;;3.95;1.90;;;4.70;99.90;;;;;;4875599;29;20045;-67
2024/01/07 03:44:49;;;;;;;2.28;1.83;;;4.70;99.90;;;;;;4862314;29;20031;-67
2024/01/07 03:47:14;;;;;;;3.70;1.75;;;4.70;99.90;;;;;;4861810;29;20041;-67
2024/01/07 03:49:40;;;;;;;5.13;2.28;;;4.70;99.90;;;;;;4862073;29;20045;-68
2024/01/07 03:52:07;;;;;;;5.50;2.30;;;4.70;99.90;;;;;;4857419;29;20044;-68
2024/01/07 03:54:33;;;;;;;3.80;2.30;;;4.70;99.90;;;;;;4860799;29;20030;-67
2024/01/07 03:56:59;;;;;;;5.88;3.50;;;4.70;99.90;;;;;;4861674;29;20033;-67
2024/01/07 03:59:25;;;;;;;3.80;2.33;;;4.70;99.90;;;;;;4875786;29;20245;-67
2024/01/07 04:01:56;;;;;;;2.78;1.55;;;4.70;99.90;;;;;;4875588;29;20678;-67
2024/01/07 04:04:25;;;;;;;7.70;3.08;;;4.70;99.90;;;;;;4860272;29;20030;-67
2024/01/07 04:06:53;;;;;;;4.28;2.45;;;4.70;99.90;;;;;;4871768;29;20049;-67
2024/01/07 04:09:20;;;;;;;5.25;2.65;;;4.70;99.90;;;;;;4861813;29;20037;-67
2024/01/07 04:11:46;;;;;;;3.92;1.83;;;4.70;99.90;;;;;;4861227;29;20060;-67
2024/01/07 04:14:17;;;;;;;3.42;2.20;;;4.70;99.90;;;;;;4860071;29;20059;-67
2024/01/07 04:16:42;;;;;;;3.03;2.00;;;4.70;99.90;;;;;;4874740;29;20186;-67
2024/01/07 04:19:08;;;;;;;3.20;1.70;;;4.70;99.90;;;;;;4861604;29;20526;-67
2024/01/07 04:21:35;;;;;;;3.42;1.67;;;4.70;99.90;;;;;;4861072;29;20021;-66
2024/01/07 04:24:01;;;;;;;2.25;1.13;;;4.70;99.90;;;;;;4861538;29;20033;-67
2024/01/07 04:26:27;;;;;;;1.98;1.15;;;4.70;99.90;;;;;;4875163;29;20093;-67
2024/01/07 04:28:53;;;;;;;3.47;2.45;;;4.70;99.90;;;;;;4861095;29;20474;-67
2024/01/07 04:31:19;;;;;;;3.83;2.63;;;4.70;99.90;;;;;;4855609;29;20093;-67
2024/01/07 04:33:45;;;;;;;4.80;1.50;;;4.70;99.90;;;;;;4860939;29;20606;-67
2024/01/07 04:36:11;;;;;;;2.72;2.45;;;4.70;99.90;;;;;;4875187;29;20061;-67
2024/01/07 04:38:37;;;;;;;3.47;1.67;;;4.70;99.90;;;;;;4875469;29;20025;-67
2024/01/07 04:41:02;;;;;;;3.78;2.00;;;4.70;99.90;;;;;;4860809;29;20041;-67
2024/01/07 04:43:28;;;;;;;5.22;2.35;;;4.60;99.90;;;;;;4860818;29;20033;-67
2024/01/07 04:45:54;;;;;;;3.70;1.98;;;4.70;99.90;;;;;;4861083;29;20089;-67
2024/01/07 04:48:20;;;;;;;6.45;3.25;;;4.70;99.90;;;;;;4860923;29;20036;-67
2024/01/07 04:50:46;;;;;;;2.63;1.45;;;4.70;99.90;;;;;;4860838;29;20033;-67
2024/01/07 04:53:11;;;;;;;2.35;1.23;;;4.70;99.90;;;;;;4860658;29;20055;-67
2024/01/07 04:55:37;;;;;;;5.97;1.90;;;4.70;99.90;;;;;;4873683;29;20410;-67
2024/01/07 04:58:04;;;;;;;4.57;2.28;;;4.60;99.90;;;;;;4858451;29;20068;-67
2024/01/07 05:00:30;;;;;;;3.72;1.52;;;4.60;99.90;;;;;;4860732;29;20124;-67
2024/01/07 05:02:56;;;;;;;1.65;1.33;;;4.60;99.90;;;;;;4859443;29;20530;-67
2024/01/07 05:05:22;;;;;;;2.55;1.38;;;4.60;99.90;;;;;;4860791;29;20033;-67
2024/01/07 05:07:47;;;;;;;3.67;1.20;;;4.60;99.90;;;;;;4860557;29;20041;-67
2024/01/07 05:10:13;;;;;;;5.57;1.95;;;4.60;99.90;;;;;;4860292;29;20033;-67
2024/01/07 05:12:39;;;;;;;2.95;1.75;;;4.60;99.90;;;;;;4874544;29;20043;-67
2024/01/07 05:15:06;;;;;;;2.40;0.93;;;4.60;99.90;;;;;;4859214;29;20029;-67
2024/01/07 05:17:32;;;;;;;2.63;1.52;;;4.60;99.90;;;;;;4870705;29;20060;-67
2024/01/07 05:19:57;;;;;;;3.22;1.67;;;4.60;99.90;;;;;;4860733;29;20054;-67
2024/01/07 05:22:24;;;;;;;3.05;1.67;;;4.60;99.90;;;;;;4874087;29;20033;-67
2024/01/07 05:24:49;;;;;;;2.40;1.60;;;4.60;99.90;;;;;;4874713;29;20052;-66
2024/01/07 05:27:15;;;;;;;7.60;1.77;;;4.70;99.90;;;;;;4859925;29;20479;-66
2024/01/07 05:29:46;;;;;;;5.20;1.55;;;4.70;99.90;;;;;;4873679;29;20045;-66
2024/01/07 05:32:12;;;;;;;2.85;1.52;;;4.60;99.90;;;;;;4873579;29;20041;-66
2024/01/07 05:34:38;;;;;;;4.70;2.17;;;4.60;99.90;;;;;;4859920;29;20044;-67
2024/01/07 05:37:03;;;;;;;3.70;1.65;;;4.60;99.90;;;;;;4859743;29;20491;-69
2024/01/07 05:39:29;;;;;;;2.92;1.85;;;4.60;99.90;;;;;;4860245;29;20030;-67
2024/01/07 05:41:55;;;;;;;6.47;2.60;;;4.60;99.90;;;;;;4873642;29;20029;-67
2024/01/07 05:44:21;;;;;;;3.42;1.70;;;4.60;99.90;;;;;;4874166;29;20037;-66
2024/01/07 05:46:46;;;;;;;3.45;1.77;;;4.60;99.90;;;;;;4855909;29;20037;-67
2024/01/07 05:49:12;;;;;;;3.13;1.88;;;4.60;99.90;;;;;;4860045;29;20188;-67
2024/01/07 05:51:41;;;;;;;4.45;1.80;;;4.60;99.90;;;;;;4859260;29;20033;-67
2024/01/07 05:54:07;;;;;;;3.28;1.58;;;4.60;99.90;;;;;;4873918;29;20048;-67
2024/01/07 05:56:37;;;;;;;5.40;2.42;;;4.60;99.90;;;;;;4869761;29;20025;-67
2024/01/07 05:59:03;;;;;;;4.25;2.13;;;4.60;99.90;;;;;;4858612;29;20037;-67
2024/01/07 06:01:29;;;;;;;2.88;1.88;;;4.60;99.90;;;;;;4855117;29;20044;-67
2024/01/07 06:03:54;;;;;;;7.22;1.73;;;4.60;99.90;;;;;;4859509;29;20057;-67
2024/01/07 06:06:20;;;;;;;3.17;1.83;;;4.70;99.90;;;;;;4855599;29;20064;-67
2024/01/07 06:08:46;;;;;;;6.50;2.45;;;4.70;99.90;;;;;;4859900;29;20030;-67
2024/01/07 06:11:18;;;;;;;6.32;3.40;;;4.60;99.90;;;;;;4859428;29;20096;-67
2024/01/07 06:13:44;;;;;;;6.70;3.20;;;4.60;99.90;;;;;;4859447;29;20029;-67
2024/01/07 06:16:10;;;;;;;6.75;2.15;;;4.60;99.90;;;;;;4862650;29;20034;-66
2024/01/07 06:18:36;;;;;;;7.50;2.50;;;4.60;99.90;;;;;;4873826;29;20427;-66
2024/01/07 06:21:02;;;;;;;4.18;2.60;;;4.60;99.90;;;;;;4873524;29;20045;-66
2024/01/07 06:23:28;;;;;;;2.65;1.65;;;4.60;99.90;;;;;;4859203;29;20525;-66
2024/01/07 06:25:53;;;;;;;3.95;2.10;;;4.60;99.90;;;;;;4870045;29;20046;-66
2024/01/07 06:28:20;;;;;;;6.13;1.98;;;4.60;99.90;;;;;;4872991;29;20049;-66
2024/01/07 06:30:45;;;;;;;6.15;2.60;;;4.60;99.90;;;;;;4858927;29;20494;-66
2024/01/07 06:33:12;;;;;;;3.50;1.73;;;4.60;99.90;;;;;;4859036;29;20037;-66
2024/01/07 06:35:38;;;;;;;5.03;2.30;;;4.60;99.90;;;;;;4858711;29;20030;-66
2024/01/07 06:38:04;;;;;;;6.10;2.17;;;4.70;99.90;;;;;;4859240;29;20134;-67
2024/01/07 06:40:30;;;;;;;3.97;2.22;;;4.60;99.90;;;;;;4858897;29;20743;-67
2024/01/07 06:42:56;;;;;;;5.18;2.72;;;4.60;99.90;;;;;;4873346;29;20040;-67
2024/01/07 06:45:22;;;;;;;7.15;2.90;;;4.60;99.90;;;;;;4859224;29;20029;-67
2024/01/07 06:47:47;;;;;;;3.47;2.13;;;4.60;99.90;;;;;;4872919;29;20053;-67
2024/01/07 06:50:13;;;;;;;4.20;2.22;;;4.70;99.90;;;;;;4859067;29;20045;-66
2024/01/07 06:52:39;;;;;;;6.10;2.58;;;4.70;99.90;;;;;;4854692;29;20112;-66
2024/01/07 06:55:05;;;;;;;5.93;2.88;;;4.70;99.90;;;;;;4873352;29;20025;-66
2024/01/07 06:57:31;;;;;;;4.82;3.22;;;4.70;99.90;;;;;;4858781;29;20116;-66
2024/01/07 06:59:57;;;;;;;6.85;2.67;;;4.70;99.90;;;;;;4873358;29;20104;-66
2024/01/07 07:02:23;;;;;;;4.82;2.38;;;4.70;99.90;;;;;;4858731;29;20113;-67
2024/01/07 07:04:50;;;;;;;4.18;2.53;;;4.60;99.90;;;;;;4859404;29;20478;-67
2024/01/07 07:07:17;;;;;;;6.22;2.75;;;4.60;99.90;;;;;;4857900;29;20439;-67
2024/01/07 07:09:43;;;;;;;5.82;3.30;;;4.60;99.90;;;;;;4858988;29;20033;-67
2024/01/07 07:12:09;;;;;;;3.60;1.85;;;4.60;99.90;;;;;;4858232;29;20049;-69
2024/01/07 07:14:35;;;;;;;4.40;2.30;;;4.60;99.90;;;;;;4857788;29;20049;-69
2024/01/07 07:17:00;;;;;;;9.98;3.13;;;4.60;99.90;;;;;;4857319;29;20032;-68
2024/01/07 07:19:26;;;;;;;4.57;2.58;;;4.60;99.90;;;;;;4858167;29;20094;-68
2024/01/07 07:21:52;;;;;;;5.97;3.30;;;4.70;99.90;;;;;;4857368;29;20026;-68
2024/01/07 07:24:17;;;;;;;8.35;4.28;;;4.70;99.90;;;;;;4858875;29;20077;-67
2024/01/07 07:26:43;;;;;;;12.07;4.63;;;4.70;99.90;;;;;;4858528;29;20079;-68
2024/01/07 07:29:12;;;;;;;5.95;3.08;;;4.70;99.90;;;;;;4858698;29;20106;-68
2024/01/07 07:31:37;;;;;;;8.43;2.75;;;4.70;99.90;;;;;;4854378;29;20033;-67
2024/01/07 07:34:09;;;;;;;5.28;2.50;;;4.70;99.90;;;;;;4855857;29;20514;-68
2024/01/07 07:36:35;;;;;;;15.75;4.10;;;4.70;99.90;;;;;;4858443;29;20651;-67
2024/01/07 07:39:01;;;;;;;8.65;3.33;;;4.70;99.90;;;;;;4858507;29;20053;-68
2024/01/07 07:41:28;;;;;;;9.95;2.78;;;4.70;99.90;;;;;;4856969;29;20064;-67
2024/01/07 07:43:54;;;;;;;4.78;3.10;;;4.70;99.90;;;;;;4858817;29;20431;-68
2024/01/07 07:46:20;;;;;;;12.60;4.78;;;4.80;99.90;;;;;;4858385;29;20124;-66
2024/01/07 07:48:46;;;;;;;7.82;4.45;;;4.70;99.90;;;;;;4872941;29;20359;-66
2024/01/07 07:51:11;;;;;;;8.27;4.03;;;4.70;99.90;;;;;;4858590;29;20501;-67
2024/01/07 07:53:40;;;;;;;9.02;4.13;;;4.70;99.90;;;;;;4870052;29;20029;-67
2024/01/07 07:56:07;;;;;;;7.75;4.03;;;4.80;99.90;;;;;;4861872;29;20490;-67
2024/01/07 07:58:33;;;;;;;9.85;3.85;;;4.80;99.90;;;;;;4861720;29;20454;-67
2024/01/07 08:00:59;;;;;;;11.23;4.75;;;4.70;99.90;;;;;;4861705;29;20025;-67
2024/01/07 08:03:24;;;;;;;12.93;5.13;;;4.70;99.90;;;;;;4875344;29;20045;-67
2024/01/07 08:05:50;;;;;;;8.73;4.35;;;4.80;99.90;;;;;;4862000;29;20105;-67
2024/01/07 08:08:19;;;;;;;8.10;3.38;;;4.80;99.90;;;;;;4854739;29;20407;-67
2024/01/07 08:10:45;;;;;;;8.00;3.70;;;4.80;99.90;;;;;;4861676;29;20040;-67
2024/01/07 08:13:10;;;;;;;10.30;4.05;;;4.80;99.90;;;;;;4853260;29;20860;-68
2024/01/07 08:15:37;;;;;;;11.27;4.22;;;4.80;99.90;;;;;;4875087;29;20542;-67
2024/01/07 08:18:04;;;;;;;9.73;4.30;;;4.80;99.90;;;;;;4860373;29;20037;-67
2024/01/07 08:20:30;;;;;;;6.93;4.28;;;4.80;99.90;;;;;;4841590;29;20041;-68
2024/01/07 08:22:56;;;;;;;8.63;3.83;;;4.90;99.90;;;;;;4873286;29;20049;-67
2024/01/07 08:25:23;;;;;;;10.18;4.82;;;4.80;99.90;;;;;;4869635;29;20036;-67
2024/01/07 08:27:49;;;;;;;13.80;4.72;;;4.80;99.90;;;;;;4861034;29;20105;-67
2024/01/07 08:30:15;;;;;;;10.98;5.93;;;4.90;99.90;;;;;;4875264;29;20118;-68
2024/01/07 08:32:42;;;;;;;10.73;3.80;;;4.80;99.90;;;;;;4859580;29;20509;-69
2024/01/07 08:35:09;;;;;;;8.77;4.90;;;4.80;99.90;;;;;;4875526;29;20037;-70
2024/01/07 08:37:35;;;;;;;10.05;5.28;;;4.80;99.90;;;;;;4853349;29;20112;-68
2024/01/07 08:40:00;;;;;;;12.75;4.78;;;4.80;99.90;;;;;;4844156;29;20113;-68
2024/01/07 08:42:29;;;;;;;11.23;5.75;;;4.80;99.90;;;;;;4867458;29;20042;-68
2024/01/07 08:44:56;;;;;;;7.30;3.78;;;4.70;99.90;;;;;;4860928;29;20109;-69
2024/01/07 08:47:21;;;;;;;11.32;4.15;;;4.70;99.90;;;;;;4860211;29;20037;-69
2024/01/07 08:49:47;;;;;;;9.63;4.65;;;4.70;99.90;;;;;;4860851;29;20410;-68
2024/01/07 08:52:13;;;;;;;9.15;4.40;;;4.60;99.90;;;;;;4858464;29;20049;-68
2024/01/07 08:54:39;;;;;;;8.73;3.65;;;4.60;99.90;;;;;;4860412;29;20073;-69
2024/01/07 08:57:04;;;;;;;3.65;2.28;;;4.50;99.90;;;;;;4859968;29;20417;-68
2024/01/07 08:59:31;;;;;;;9.75;3.97;;;4.50;99.90;;;;;;4857804;29;20466;-69
2024/01/07 09:01:56;;;;;;;6.70;3.42;;;4.50;99.90;;;;;;4856628;29;20116;-68
2024/01/07 09:04:23;;;;;;;6.20;3.90;;;4.50;99.90;;;;;;4858473;29;20104;-68
2024/01/07 09:06:49;;;;;;;7.32;4.10;;;4.40;99.90;;;;;;4855789;29;20041;-69
2024/01/07 09:09:14;;;;;;;8.43;4.40;;;4.40;99.90;;;;;;4859433;29;20033;-70
2024/01/07 09:11:40;;;;;;;9.38;4.25;;;4.40;99.90;;;;;;4860241;29;20041;-69
2024/01/07 09:14:06;;;;;;;25.20;9.75;;;4.40;99.90;;;;;;4860412;29;20110;-69
2024/01/07 09:16:32;;;;;;;7.20;3.13;;;4.40;99.90;;;;;;4855518;29;20486;-69
2024/01/07 09:18:57;;;;;;;8.88;4.50;;;4.50;99.90;;;;;;4857390;29;20602;-68
2024/01/07 09:21:23;;;;;;;4.05;2.83;;;4.50;99.90;;;;;;4860030;29;20060;-69
2024/01/07 09:23:49;;;;;;;7.32;3.47;;;4.50;99.90;;;;;;4858454;29;20030;-68
2024/01/07 09:26:15;;;;;;;6.15;3.20;;;4.50;99.90;;;;;;4860587;29;20026;-68
2024/01/07 09:28:42;;;;;;;6.88;3.83;;;4.50;99.90;;;;;;4860070;29;20632;-68
2024/01/07 09:31:08;;;;;;;5.18;2.33;;;4.50;99.90;;;;;;4874296;29;20116;-69
2024/01/07 09:33:34;;;;;;;10.40;3.75;;;4.40;99.90;;;;;;4857933;29;20054;-69
2024/01/07 09:36:00;;;;;;;5.88;2.95;;;4.50;99.90;;;;;;4856753;29;20120;-66
2024/01/07 09:38:26;;;;;;;8.52;3.08;;;4.60;99.90;;;;;;4859986;29;20836;-66
2024/01/07 09:40:53;;;;;;;7.57;3.45;;;5.40;99.90;;;;;;4855305;29;20059;-65
2024/01/07 09:43:20;;;;;;;7.80;3.25;;;5.50;99.90;;;;;;4858519;29;20034;-65
2024/01/07 09:45:50;;;;;;;8.93;3.40;;;5.70;99.90;;;;;;4854104;29;20104;-65
2024/01/07 09:48:16;;;;;;;6.57;3.45;;;6.00;99.90;;;;;;4857746;29;20037;-64
2024/01/07 09:50:42;;;;;;;9.63;3.85;;;6.00;99.90;;;;;;4856560;29;20068;-64
2024/01/07 09:53:18;;;;;;;5.25;3.03;;;6.20;99.90;;;;;;4858826;29;20173;-64
2024/01/07 09:55:54;;;;;;;10.25;3.83;;;6.60;99.90;;;;;;4859085;29;20037;-63
2024/01/07 09:58:21;;;;;;;8.43;3.13;;;6.60;99.90;;;;;;4859533;29;20094;-64
2024/01/07 10:00:46;;;;;;;7.97;3.25;;;6.60;99.90;;;;;;4856836;29;20037;-65
2024/01/07 10:03:13;;;;;;;6.78;3.08;;;6.70;99.90;;;;;;4859120;29;20037;-64
2024/01/07 10:05:39;;;;;;;5.55;2.78;;;6.30;99.90;;;;;;4861888;29;20455;-65
2024/01/07 10:08:06;;;;;;;9.13;3.33;;;6.50;99.90;;;;;;4859299;29;20112;-63
2024/01/07 10:10:34;;;;;;;10.90;3.22;;;6.70;99.90;;;;;;4854619;29;20066;-64
2024/01/07 10:13:00;;;;;;;4.80;2.88;;;6.60;99.90;;;;;;4859079;29;20044;-64
2024/01/07 10:15:26;;;;;;;10.57;3.25;;;6.50;99.90;;;;;;4853960;29;20029;-65
2024/01/07 10:17:56;;;;;;;7.47;3.22;;;6.60;99.90;;;;;;4859266;29;20033;-64
2024/01/07 10:20:22;;;;;;;4.35;2.80;;;7.00;99.90;;;;;;4871186;29;20036;-65
2024/01/07 10:22:50;;;;;;;5.65;2.78;;;7.00;99.90;;;;;;4858968;29;20038;-64
2024/01/07 10:25:16;;;;;;;4.43;2.25;;;7.00;99.90;;;;;;4857338;29;20474;-63
2024/01/07 10:27:42;;;;;;;7.75;3.00;;;7.10;99.90;;;;;;4859022;29;20064;-63
2024/01/07 10:30:09;;;;;;;5.30;3.13;;;6.80;99.90;;;;;;4858454;29;20501;-63
2024/01/07 10:32:38;;;;;;;6.93;3.03;;;6.90;99.90;;;;;;4858721;29;20112;-64
2024/01/07 10:35:05;;;;;;;7.55;3.15;;;6.80;99.90;;;;;;4858685;29;20038;-63
2024/01/07 10:37:32;;;;;;;4.13;2.03;;;6.20;99.90;;;;;;4842313;29;20069;-63
2024/01/07 10:40:03;;;;;;;5.57;2.70;;;6.20;99.90;;;;;;4857371;29;20052;-63
2024/01/07 10:42:32;;;;;;;;;;;6.20;99.90;;;;;;4857701;29;20376;-63
2024/01/07 10:45:00;;;;;;;3.00;1.55;;;6.30;99.90;;;;;;4856140;29;19922;-63
2024/01/07 10:47:33;;;;;;;7.03;3.30;;;6.40;99.90;;;;;;4865835;29;20073;-63
2024/01/07 10:50:01;;;;;;;5.75;2.63;;;6.70;99.90;;;;;;4858681;29;20055;-63
2024/01/07 10:52:28;;;;;;;5.00;2.38;;;6.20;99.90;;;;;;4872191;29;20078;-62
2024/01/07 10:55:02;;;;;;;7.60;2.78;;;6.20;99.90;;;;;;4858216;29;20026;-63
2024/01/07 10:57:55;;;;;;;4.80;2.33;;;6.20;99.90;;;;;;4857906;29;20029;-63
2024/01/07 11:00:22;;;;;;;5.90;2.55;;;6.10;99.90;;;;;;4850158;29;20064;-68
2024/01/07 11:03:19;;;;;;;6.13;2.83;;;5.90;99.90;;;;;;4858269;29;20034;-68
2024/01/07 11:05:56;;;;;;;6.93;2.08;;;5.80;99.90;;;;;;4868227;29;20525;-67
2024/01/07 11:08:47;;;;;;;4.72;2.25;;;5.90;99.90;;;;;;4858615;29;20470;-68
2024/01/07 11:11:23;;;;;;;3.88;2.55;;;6.00;99.90;;;;;;4852736;29;20086;-68
2024/01/07 11:13:49;;;;;;;3.45;1.70;;;5.80;99.90;;;;;;4870647;29;20486;-68
2024/01/07 11:16:41;;;;;;;4.75;2.15;;;5.70;99.90;;;;;;4871371;29;20121;-68
2024/01/07 11:19:07;;;;;;;2.85;1.98;;;5.30;99.90;;;;;;4871593;29;20033;-70
2024/01/07 11:21:33;;;;;;;3.72;1.75;;;5.40;99.90;;;;;;4856828;29;20041;-69
2024/01/07 11:23:59;;;;;;;4.13;1.92;;;5.40;99.90;;;;;;4856978;29;20072;-69
2024/01/07 11:26:30;;;;;;;3.85;2.20;;;5.40;99.90;;;;;;4873611;29;20471;-68
2024/01/07 11:28:57;;;;;;;4.38;3.03;;;5.50;99.90;;;;;;4860668;29;20025;-68
2024/01/07 11:31:41;;;;;;;3.22;2.05;;;5.50;99.90;;;;;;4883972;29;20068;-69
2024/01/07 11:34:08;;;;;;;4.35;2.08;;;5.70;99.90;;;;;;4857825;29;20050;-68
2024/01/07 11:36:38;;;;;;;4.25;2.45;;;5.70;99.90;;;;;;4860902;29;20021;-69
2024/01/07 11:39:08;;;;;;;5.40;2.28;;;5.70;99.90;;;;;;4861248;29;20038;-68
2024/01/07 11:41:35;;;;;;;3.40;2.03;;;5.50;99.90;;;;;;4860062;29;20018;-68
2024/01/07 11:44:02;;;;;;;4.15;2.13;;;5.20;99.90;;;;;;4873691;29;20046;-67
2024/01/07 11:46:32;;;;;;;4.93;2.30;;;5.00;99.90;;;;;;4861706;29;20486;-67
2024/01/07 11:48:59;;;;;;;3.75;2.58;;;5.20;99.90;;;;;;4861076;29;20049;-68
2024/01/07 11:51:32;;;;;;;5.88;2.53;;;5.20;99.90;;;;;;4854795;29;20470;-67
2024/01/07 11:54:00;;;;;;;3.92;2.20;;;5.30;99.90;;;;;;4859827;29;20034;-67
2024/01/07 11:56:26;;;;;;;6.78;2.50;;;5.30;99.90;;;;;;4861407;29;20085;-68
2024/01/07 11:58:52;;;;;;;5.63;2.92;;;5.30;99.90;;;;;;4875428;29;20025;-67
2024/01/07 12:01:19;;;;;;;5.78;2.75;;;5.20;99.90;;;;;;4854055;29;20033;-68
2024/01/07 12:03:45;;;;;;;4.15;2.08;;;5.10;99.90;;;;;;4876977;29;20032;-68
2024/01/07 12:06:15;;;;;;;4.40;2.60;;;4.90;99.90;;;;;;4873080;29;20037;-68
2024/01/07 12:08:43;;;;;;;4.32;2.05;;;4.80;99.90;;;;;;4860733;29;20021;-68
2024/01/07 12:11:13;;;;;;;5.03;2.30;;;4.70;99.90;;;;;;4855732;29;20033;-68
2024/01/07 12:13:40;;;;;;;3.83;2.45;;;4.50;99.90;;;;;;4875466;29;20379;-67
2024/01/07 12:16:07;;;;;;;3.45;2.38;;;4.40;99.90;;;;;;4869593;29;20072;-67
2024/01/07 12:18:33;;;;;;;4.88;2.20;;;4.30;99.90;;;;;;4860695;29;20411;-68
2024/01/07 12:20:59;;;;;;;7.20;2.83;;;4.30;99.90;;;;;;4860133;29;20037;-68
2024/01/07 12:23:26;;;;;;;4.22;2.78;;;4.20;99.90;;;;;;4860946;29;20025;-68
2024/01/07 12:25:53;;;;;;;5.50;3.22;;;4.20;99.90;;;;;;4860674;29;20085;-68
2024/01/07 12:28:19;;;;;;;6.03;2.80;;;4.10;99.90;;;;;;4861501;29;20078;-69
2024/01/07 12:30:47;;;;;;;5.78;2.75;;;4.10;99.90;;;;;;4853998;29;20038;-67
2024/01/07 12:33:19;;;;;;;5.40;1.95;;;4.10;99.90;;;;;;4860578;29;20041;-67
2024/01/07 12:35:47;;;;;;;4.65;2.95;;;4.10;99.90;;;;;;4858447;29;20049;-67
2024/01/07 12:38:13;;;;;;;6.55;2.83;;;4.20;99.90;;;;;;4875334;29;20025;-71
2024/01/07 12:40:39;;;;;;;6.07;2.40;;;4.10;99.90;;;;;;4855060;29;20034;-68
2024/01/07 12:43:06;;;;;;;5.07;3.03;;;4.10;99.90;;;;;;4859950;29;20181;-69
2024/01/07 12:45:33;;;;;;;4.43;3.22;;;4.10;99.90;;;;;;4860976;29;20360;-67
2024/01/07 12:48:02;;;;;;;2.17;1.70;;;4.00;99.90;;;;;;4861350;29;20174;-67
2024/01/07 12:50:29;;;;;;;3.88;1.80;;;3.80;99.90;;;;;;4854932;29;20089;-67
2024/01/07 12:52:55;;;;;;;5.65;2.25;;;3.80;99.90;;;;;;4860701;29;20508;-67